createdAt,value
2023-03-27T00:02:00.242Z,49.79
2023-03-27T00:06:17.228Z,51.32
2023-03-27T00:10:29.820Z,52.72
2023-03-27T00:14:42.315Z,53.18
2023-03-27T00:18:55.742Z,53.88
2023-03-27T00:23:08.286Z,56.41
2023-03-27T00:27:20.588Z,57.62
2023-03-27T00:31:32.951Z,57.10
2023-03-27T00:35:47.643Z,54.25
2023-03-27T00:40:00.594Z,53.70
2023-03-27T00:44:25.795Z,53.32
2023-03-27T00:48:38.489Z,54.68
2023-03-27T00:52:56.567Z,54.55
2023-03-27T00:57:15.464Z,55.29
2023-03-27T01:01:29.478Z,55.72
2023-03-27T01:05:42.141Z,56.50
2023-03-27T01:09:56.705Z,56.38
2023-03-27T01:14:16.648Z,55.93
2023-03-27T01:18:49.209Z,55.42
2023-03-27T01:23:59.660Z,54.96
2023-03-27T01:28:33.959Z,54.43
2023-03-27T01:33:01.800Z,54.44
2023-03-27T01:38:00.127Z,53.46
2023-03-27T01:42:21.243Z,53.96
2023-03-27T01:46:42.041Z,54.08
2023-03-27T01:51:04.987Z,54.63
2023-03-27T01:55:24.406Z,54.42
2023-03-27T01:59:44.880Z,54.67
2023-03-27T02:04:02.128Z,55.36
2023-03-27T02:08:31.506Z,54.48
2023-03-27T02:13:01.597Z,54.19
2023-03-27T02:17:15.039Z,54.79
2023-03-27T02:21:28.146Z,54.56
2023-03-27T02:25:45.708Z,53.41
2023-03-27T02:30:16.904Z,51.48
2023-03-27T02:34:39.834Z,51.66
2023-03-27T02:39:10.383Z,51.32
2023-03-27T02:43:35.106Z,50.58
2023-03-27T02:48:27.764Z,50.48
2023-03-27T02:52:53.920Z,48.44
2023-03-27T02:57:11.939Z,48.15
2023-03-27T03:01:45.756Z,48.29
2023-03-27T03:06:07.515Z,47.99
2023-03-27T03:10:21.523Z,47.49
2023-03-27T03:14:39.560Z,47.05
2023-03-27T03:18:52.252Z,46.24
2023-03-27T03:23:04.649Z,45.06
2023-03-27T03:27:21.267Z,43.84
2023-03-27T03:31:43.786Z,43.97
2023-03-27T03:36:01.029Z,43.38
2023-03-27T03:40:19.630Z,44.64
2023-03-27T03:44:35.653Z,43.52
2023-03-27T03:48:59.238Z,42.11
2023-03-27T03:53:12.726Z,41.45
2023-03-27T03:57:25.063Z,42.12
2023-03-27T04:01:51.919Z,40.20
2023-03-27T04:06:07.981Z,41.18
2023-03-27T04:10:20.375Z,41.26
2023-03-27T04:14:33.489Z,40.76
2023-03-27T04:18:54.750Z,40.52
2023-03-27T04:23:10.406Z,41.53
2023-03-27T04:27:25.162Z,41.59
2023-03-27T04:31:46.837Z,43.43
2023-03-27T04:36:18.723Z,45.57
2023-03-27T04:40:39.668Z,47.19
2023-03-27T04:44:53.329Z,48.01
2023-03-27T04:49:06.344Z,43.33
2023-03-27T04:53:38.090Z,43.44
2023-03-27T04:57:51.372Z,43.34
2023-03-27T05:02:05.385Z,45.52
2023-03-27T05:06:28.248Z,44.35
2023-03-27T05:10:40.868Z,45.56
2023-03-27T05:14:53.324Z,50.21
2023-03-27T05:19:20.495Z,53.47
2023-03-27T05:23:42.467Z,58.64
2023-03-27T05:27:55.409Z,60.13
2023-03-27T05:32:10.958Z,57.83
2023-03-27T05:36:30.122Z,61.00
2023-03-27T05:40:43.877Z,62.29
2023-03-27T05:45:00.582Z,65.19
2023-03-27T05:49:13.529Z,65.84
2023-03-27T05:53:28.379Z,63.18
2023-03-27T05:58:00.154Z,66.73
2023-03-27T06:02:21.109Z,70.41
2023-03-27T06:06:44.042Z,64.76
2023-03-27T06:10:57.965Z,67.61
2023-03-27T06:15:18.136Z,68.14
2023-03-27T06:19:37.751Z,71.02
2023-03-27T06:23:50.157Z,72.01
2023-03-27T06:28:08.588Z,75.33
2023-03-27T06:32:30.037Z,72.14
2023-03-27T06:36:43.314Z,75.11
2023-03-27T06:40:58.133Z,78.60
2023-03-27T06:45:12.081Z,78.72
2023-03-27T06:49:47.929Z,77.37
2023-03-27T06:54:06.240Z,80.98
2023-03-27T06:58:19.401Z,80.25
2023-03-27T07:02:32.117Z,83.18
2023-03-27T07:07:02.670Z,81.29
2023-03-27T07:11:19.378Z,75.88
2023-03-27T07:15:40.153Z,75.61
2023-03-27T07:19:54.125Z,74.51
2023-03-27T07:24:10.275Z,77.65
2023-03-27T07:28:23.502Z,78.63
2023-03-27T07:32:37.990Z,77.83
2023-03-27T07:36:53.410Z,76.10
2023-03-27T07:41:07.411Z,77.77
2023-03-27T07:45:38.724Z,75.30
2023-03-27T07:49:51.261Z,75.19
2023-03-27T07:54:07.557Z,74.71
2023-03-27T07:58:23.733Z,73.37
2023-03-27T08:02:37.973Z,73.08
2023-03-27T08:06:51.967Z,72.95
2023-03-27T08:11:13.513Z,72.43
2023-03-27T08:15:32.531Z,73.52
2023-03-27T08:19:46.685Z,71.54
2023-03-27T08:24:04.984Z,72.23
2023-03-27T08:28:20.486Z,72.67
2023-03-27T08:32:33.297Z,74.21
2023-03-27T08:36:52.810Z,76.99
2023-03-27T08:41:08.005Z,79.09
2023-03-27T08:45:30.864Z,79.41
2023-03-27T08:50:15.669Z,79.61
2023-03-27T08:54:35.131Z,79.11
2023-03-27T08:58:49.155Z,80.23
2023-03-27T09:03:29.859Z,80.18
2023-03-27T09:07:50.312Z,77.44
2023-03-27T09:12:26.188Z,76.45
2023-03-27T09:16:49.970Z,75.51
2023-03-27T09:21:20.034Z,72.82
2023-03-27T09:25:38.304Z,73.89
2023-03-27T09:30:11.338Z,73.78
2023-03-27T09:34:33.746Z,71.97
2023-03-27T09:38:51.264Z,70.89
2023-03-27T09:43:24.537Z,70.83
2023-03-27T09:47:45.580Z,70.41
2023-03-27T09:52:00.483Z,71.67
2023-03-27T09:56:39.129Z,70.71
2023-03-27T10:01:23.633Z,75.02
2023-03-27T10:05:39.237Z,85.30
2023-03-27T10:10:09.746Z,88.94
2023-03-27T10:14:47.656Z,88.34
2023-03-27T10:19:20.868Z,86.02
2023-03-27T10:23:51.784Z,84.89
2023-03-27T10:28:23.129Z,82.12
2023-03-27T10:32:57.320Z,77.37
2023-03-27T10:37:34.627Z,77.25
2023-03-27T10:42:09.657Z,74.56
2023-03-27T10:46:29.552Z,72.34
2023-03-27T10:50:58.122Z,69.77
2023-03-27T10:55:55.970Z,67.45
2023-03-27T11:00:18.728Z,69.42
2023-03-27T11:04:49.611Z,68.75
2023-03-27T11:09:16.291Z,69.17
2023-03-27T11:13:45.656Z,67.77
2023-03-27T11:18:03.341Z,64.30
2023-03-27T11:22:45.156Z,60.80
2023-03-27T11:27:39.336Z,57.95
2023-03-27T11:31:53.890Z,55.38
2023-03-27T11:36:51.780Z,56.65
2023-03-27T11:41:15.245Z,55.29
2023-03-27T11:45:49.270Z,52.12
2023-03-27T11:50:26.660Z,47.10
2023-03-27T11:55:06.854Z,44.44
2023-03-27T11:59:36.005Z,48.90
2023-03-27T12:04:07.124Z,53.88
2023-03-27T12:09:11.204Z,55.05
2023-03-27T12:14:40.096Z,52.59
2023-03-27T12:19:06.016Z,50.55
2023-03-27T12:24:16.409Z,51.80
2023-03-27T12:29:03.075Z,52.52
2023-03-27T12:34:05.475Z,50.66
2023-03-27T12:38:31.661Z,47.89
2023-03-27T12:42:54.035Z,49.89
2023-03-27T12:47:14.605Z,51.24
2023-03-27T12:51:54.104Z,52.29
2023-03-27T12:56:34.729Z,51.95
2023-03-27T13:01:00.803Z,50.16
2023-03-27T13:06:21.070Z,48.54
2023-03-27T13:10:34.638Z,49.76
2023-03-27T13:14:57.630Z,51.99
2023-03-27T13:19:32.096Z,50.47
2023-03-27T13:24:08.794Z,49.51
2023-03-27T13:28:37.554Z,49.83
2023-03-27T13:33:28.294Z,51.64
2023-03-27T13:37:48.429Z,50.71
2023-03-27T13:42:32.273Z,52.23
2023-03-27T13:46:51.278Z,52.14
2023-03-27T13:51:13.362Z,52.68
2023-03-27T13:55:57.078Z,55.26
2023-03-27T14:00:57.364Z,58.13
2023-03-27T14:05:35.885Z,61.07
2023-03-27T14:10:38.064Z,63.72
2023-03-27T14:15:46.588Z,63.02
2023-03-27T14:20:23.603Z,62.30
2023-03-27T14:25:01.304Z,59.88
2023-03-27T14:29:36.820Z,60.50
2023-03-27T14:34:12.430Z,60.87
2023-03-27T14:38:31.367Z,63.02
2023-03-27T14:42:49.901Z,62.55
2023-03-27T14:47:10.237Z,66.51
2023-03-27T14:51:35.100Z,68.94
2023-03-27T14:55:49.564Z,67.40
2023-03-27T15:00:23.750Z,70.73
2023-03-27T15:04:40.482Z,71.68
2023-03-27T15:09:05.682Z,75.92
2023-03-27T15:13:48.234Z,77.03
2023-03-27T15:18:15.639Z,77.01
2023-03-27T15:22:31.123Z,77.27
2023-03-27T15:26:43.719Z,80.68
2023-03-27T15:31:01.133Z,79.94
2023-03-27T15:35:36.283Z,79.48
2023-03-27T15:40:26.867Z,82.53
2023-03-27T15:44:42.153Z,83.97
2023-03-27T15:48:56.619Z,85.15
2023-03-27T15:53:09.097Z,84.80
2023-03-27T15:57:21.905Z,86.39
2023-03-27T16:01:40.910Z,86.88
2023-03-27T16:05:56.718Z,86.45
2023-03-27T16:10:10.699Z,86.52
2023-03-27T16:14:32.696Z,86.87
2023-03-27T16:18:49.367Z,87.16
2023-03-27T16:23:02.546Z,86.24
2023-03-27T16:27:15.073Z,84.74
2023-03-27T16:31:27.700Z,85.46
2023-03-27T16:35:40.080Z,85.40
2023-03-27T16:39:53.743Z,85.71
2023-03-27T16:44:06.181Z,86.12
2023-03-27T16:48:23.913Z,85.86
2023-03-27T16:52:36.313Z,85.23
2023-03-27T16:56:48.866Z,84.59
2023-03-27T17:01:01.521Z,83.76
2023-03-27T17:05:14.826Z,84.94
2023-03-27T17:09:27.912Z,83.07
2023-03-27T17:13:43.329Z,85.01
2023-03-27T17:17:56.237Z,86.41
2023-03-27T17:22:09.619Z,85.15
2023-03-27T17:26:28.187Z,85.57
2023-03-27T17:30:56.598Z,84.23
2023-03-27T17:35:13.785Z,85.06
2023-03-27T17:39:27.212Z,82.01
2023-03-27T17:43:40.532Z,82.84
2023-03-27T17:47:53.027Z,82.08
2023-03-27T17:52:08.562Z,78.93
2023-03-27T17:56:22.991Z,81.41
2023-03-27T18:00:36.648Z,79.49
2023-03-27T18:04:52.423Z,80.92
2023-03-27T18:09:05.287Z,81.45
2023-03-27T18:13:21.400Z,80.44
2023-03-27T18:17:35.771Z,80.41
2023-03-27T18:21:49.946Z,80.20
2023-03-27T18:26:08.991Z,82.10
2023-03-27T18:30:21.670Z,82.56
2023-03-27T18:34:34.308Z,82.26
2023-03-27T18:38:49.727Z,83.11
2023-03-27T18:43:02.350Z,83.53
2023-03-27T18:47:14.781Z,85.37
2023-03-27T18:51:27.152Z,86.20
2023-03-27T18:55:39.610Z,84.48
2023-03-27T18:59:52.264Z,85.25
2023-03-27T19:04:04.960Z,85.76
2023-03-27T19:08:18.730Z,83.31
2023-03-27T19:12:32.085Z,85.09
2023-03-27T19:17:01.048Z,85.10
2023-03-27T19:21:31.954Z,85.42
2023-03-27T19:25:55.148Z,87.55
2023-03-27T19:30:09.015Z,86.38
2023-03-27T19:34:32.666Z,86.86
2023-03-27T19:38:48.885Z,87.61
2023-03-27T19:43:01.329Z,87.54
2023-03-27T19:47:13.879Z,88.08
2023-03-27T19:51:26.374Z,89.24
2023-03-27T19:55:38.930Z,90.05
2023-03-27T19:59:51.743Z,88.86
2023-03-27T20:04:04.920Z,89.39
2023-03-27T20:08:18.308Z,88.98
2023-03-27T20:12:33.046Z,87.96
2023-03-27T20:16:46.846Z,88.04
2023-03-27T20:21:02.490Z,88.05
2023-03-27T20:25:15.694Z,88.95
2023-03-27T20:29:29.773Z,89.73
2023-03-27T20:33:42.159Z,88.45
2023-03-27T20:37:58.055Z,87.01
2023-03-27T20:42:15.966Z,88.91
2023-03-27T20:46:33.181Z,88.42
2023-03-27T20:50:55.788Z,87.54
2023-03-27T20:55:09.203Z,87.94
2023-03-27T20:59:21.938Z,88.43
2023-03-27T21:03:37.126Z,88.23
2023-03-27T21:07:51.582Z,86.57
2023-03-27T21:12:04.114Z,84.87
2023-03-27T21:16:16.715Z,85.63
2023-03-27T21:20:29.119Z,84.89
2023-03-27T21:24:41.441Z,84.95
2023-03-27T21:28:53.969Z,83.88
2023-03-27T21:33:07.503Z,82.92
2023-03-27T21:37:20.054Z,81.37
2023-03-27T21:41:32.667Z,83.73
2023-03-27T21:45:47.033Z,82.80
2023-03-27T21:49:59.444Z,83.76
2023-03-27T21:54:11.866Z,83.77
2023-03-27T21:58:25.026Z,84.07
2023-03-27T22:02:37.520Z,83.54
2023-03-27T22:06:50.064Z,82.64
2023-03-27T22:11:02.465Z,81.97
2023-03-27T22:15:14.839Z,82.88
2023-03-27T22:19:27.328Z,82.30
2023-03-27T22:23:39.816Z,84.43
2023-03-27T22:27:52.316Z,85.65
2023-03-27T22:32:04.830Z,86.47
2023-03-27T22:36:17.555Z,86.15
2023-03-27T22:40:30.130Z,85.11
2023-03-27T22:44:42.716Z,85.16
2023-03-27T22:48:56.863Z,84.38
2023-03-27T22:53:09.366Z,84.14
2023-03-27T22:57:21.665Z,85.35
2023-03-27T23:01:34.104Z,84.27
2023-03-27T23:05:49.371Z,84.87
2023-03-27T23:10:02.036Z,82.68
2023-03-27T23:14:14.678Z,84.07
2023-03-27T23:18:27.398Z,85.72
2023-03-27T23:22:39.797Z,85.78
2023-03-27T23:26:52.299Z,86.73
2023-03-27T23:31:07.432Z,86.80
2023-03-27T23:35:21.325Z,85.59
2023-03-27T23:39:33.706Z,83.67
2023-03-27T23:43:46.491Z,82.59
2023-03-27T23:47:58.888Z,81.59
2023-03-27T23:52:11.493Z,82.99
2023-03-27T23:56:23.883Z,84.55
